createdAt,value
2022-12-06T00:00:38.930Z,100
2022-12-06T00:01:53.205Z,100
2022-12-06T00:04:22.214Z,100
2022-12-06T00:05:36.529Z,100
2022-12-06T00:08:05.092Z,100
2022-12-06T00:09:19.506Z,100
2022-12-06T00:10:33.831Z,100
2022-12-06T00:11:48.097Z,100
2022-12-06T00:13:02.391Z,100
2022-12-06T00:14:16.787Z,100
2022-12-06T00:15:31.118Z,100
2022-12-06T00:16:45.404Z,100
2022-12-06T00:17:59.683Z,100
2022-12-06T00:19:14.084Z,100
2022-12-06T00:20:28.399Z,100
2022-12-06T00:21:42.693Z,100
2022-12-06T00:22:56.974Z,100
2022-12-06T00:24:11.379Z,100
2022-12-06T00:25:25.692Z,100
2022-12-06T00:26:39.991Z,100
2022-12-06T00:27:54.272Z,100
2022-12-06T00:29:08.672Z,100
2022-12-06T00:30:23.060Z,100
2022-12-06T00:31:36.000Z,100
2022-12-06T00:32:50.780Z,100
2022-12-06T00:34:05.183Z,100
2022-12-06T00:35:19.528Z,100
2022-12-06T00:36:33.861Z,100
2022-12-06T00:37:48.196Z,100
2022-12-06T00:39:02.540Z,100
2022-12-06T00:40:16.934Z,100
2022-12-06T00:41:31.282Z,100
2022-12-06T00:42:44.679Z,100
2022-12-06T00:43:58.082Z,100
2022-12-06T00:45:12.419Z,100
2022-12-06T00:46:26.740Z,100
2022-12-06T00:48:55.415Z,100
2022-12-06T00:50:09.837Z,100
2022-12-06T00:52:38.496Z,100
2022-12-06T00:53:52.850Z,100
2022-12-06T00:55:07.190Z,100
2022-12-06T00:56:21.592Z,100
2022-12-06T00:57:35.935Z,100
2022-12-06T01:00:03.675Z,100
2022-12-06T01:01:18.074Z,100
2022-12-06T01:02:32.414Z,100
2022-12-06T01:05:00.171Z,100
2022-12-06T01:06:14.561Z,100
2022-12-06T01:07:28.908Z,100
2022-12-06T01:08:43.243Z,100
2022-12-06T01:11:11.921Z,100
2022-12-06T01:12:26.329Z,100
2022-12-06T01:13:40.659Z,100
2022-12-06T01:14:54.031Z,100
2022-12-06T01:16:08.306Z,100
2022-12-06T01:17:22.702Z,100
2022-12-06T01:18:37.027Z,100
2022-12-06T01:19:51.315Z,100
2022-12-06T01:21:05.587Z,100
2022-12-06T01:22:19.999Z,100
2022-12-06T01:23:34.329Z,100
2022-12-06T01:24:48.600Z,100
2022-12-06T01:26:02.877Z,100
2022-12-06T01:28:31.621Z,100
2022-12-06T01:31:00.181Z,100
2022-12-06T01:32:14.592Z,100
2022-12-06T01:33:28.909Z,100
2022-12-06T01:34:43.188Z,100
2022-12-06T01:35:57.472Z,100
2022-12-06T01:38:26.208Z,100
2022-12-06T01:39:40.479Z,100
2022-12-06T01:40:54.762Z,100
2022-12-06T01:42:09.162Z,100
2022-12-06T01:43:23.502Z,100
2022-12-06T01:45:52.118Z,100
2022-12-06T01:47:06.514Z,100
2022-12-06T01:48:20.852Z,100
2022-12-06T01:49:34.242Z,100
2022-12-06T01:50:48.576Z,100
2022-12-06T01:52:02.986Z,100
2022-12-06T01:54:31.660Z,100
2022-12-06T01:55:45.992Z,100
2022-12-06T01:57:00.333Z,100
2022-12-06T01:58:14.755Z,100
2022-12-06T01:59:29.090Z,100
2022-12-06T02:01:57.763Z,100
2022-12-06T02:03:11.167Z,100
2022-12-06T02:04:25.506Z,100
2022-12-06T02:05:38.898Z,100
2022-12-06T02:06:53.237Z,100
2022-12-06T02:08:07.643Z,100
2022-12-06T02:09:21.975Z,100
2022-12-06T02:10:36.313Z,100
2022-12-06T02:11:50.647Z,100
2022-12-06T02:13:04.985Z,100
2022-12-06T02:14:19.399Z,100
2022-12-06T02:15:33.723Z,100
2022-12-06T02:16:48.060Z,100
2022-12-06T02:18:01.484Z,100
2022-12-06T02:19:15.879Z,100
2022-12-06T02:20:30.228Z,100
2022-12-06T02:21:43.607Z,100
2022-12-06T02:22:57.934Z,100
2022-12-06T02:24:12.361Z,100
2022-12-06T02:25:26.684Z,100
2022-12-06T02:26:41.026Z,100
2022-12-06T02:27:55.367Z,100
2022-12-06T02:29:09.713Z,100
2022-12-06T02:30:24.103Z,100
2022-12-06T02:31:38.446Z,100
2022-12-06T02:32:51.847Z,100
2022-12-06T02:34:05.238Z,100
2022-12-06T02:35:19.581Z,100
2022-12-06T02:36:33.916Z,100
2022-12-06T02:37:48.262Z,100
2022-12-06T02:39:02.589Z,100
2022-12-06T02:40:16.991Z,100
2022-12-06T02:41:31.345Z,100
2022-12-06T02:42:45.672Z,100
2022-12-06T02:44:00.007Z,100
2022-12-06T02:45:14.355Z,100
2022-12-06T02:46:28.750Z,100
2022-12-06T02:47:43.096Z,100
2022-12-06T02:48:57.441Z,100
2022-12-06T02:50:10.830Z,100
2022-12-06T02:51:25.236Z,100
2022-12-06T02:52:39.568Z,100
2022-12-06T02:53:53.911Z,100
2022-12-06T02:55:08.251Z,100
2022-12-06T02:56:22.590Z,100
2022-12-06T02:57:36.983Z,100
2022-12-06T02:58:51.333Z,100
2022-12-06T03:00:05.752Z,100
2022-12-06T03:01:20.079Z,100
2022-12-06T03:02:34.344Z,100
2022-12-06T03:03:48.771Z,100
2022-12-06T03:05:03.093Z,100
2022-12-06T03:07:31.652Z,100
2022-12-06T03:08:46.057Z,100
2022-12-06T03:10:00.375Z,100
2022-12-06T03:11:14.655Z,100
2022-12-06T03:12:28.936Z,100
2022-12-06T03:14:57.676Z,100
2022-12-06T03:17:26.227Z,100
2022-12-06T03:18:40.643Z,100
2022-12-06T03:19:54.964Z,100
2022-12-06T03:21:09.241Z,100
2022-12-06T03:22:23.524Z,100
2022-12-06T03:24:52.257Z,100
2022-12-06T03:26:06.539Z,100
2022-12-06T03:27:20.817Z,100
2022-12-06T03:28:35.239Z,100
2022-12-06T03:29:49.564Z,100
2022-12-06T03:31:03.898Z,100
2022-12-06T03:32:17.277Z,100
2022-12-06T03:33:31.609Z,100
2022-12-06T03:36:00.287Z,100
2022-12-06T03:37:14.634Z,100
2022-12-06T03:38:29.032Z,100
2022-12-06T03:39:43.384Z,100
2022-12-06T03:40:57.717Z,100
2022-12-06T03:42:12.056Z,100
2022-12-06T03:43:26.394Z,100
2022-12-06T03:44:40.807Z,100
2022-12-06T03:47:09.468Z,100
2022-12-06T03:48:22.881Z,100
2022-12-06T03:49:37.291Z,100
2022-12-06T03:50:51.624Z,100
2022-12-06T03:52:05.020Z,100
2022-12-06T03:53:19.346Z,100
2022-12-06T03:54:33.752Z,100
2022-12-06T03:55:48.095Z,100
2022-12-06T03:58:16.773Z,100
2022-12-06T03:59:31.106Z,100
2022-12-06T04:00:45.529Z,100
2022-12-06T04:01:59.862Z,100
2022-12-06T04:03:14.188Z,100
2022-12-06T04:04:28.527Z,100
2022-12-06T04:05:42.884Z,100
2022-12-06T04:06:57.280Z,100
2022-12-06T04:08:11.619Z,100
2022-12-06T04:09:25.005Z,100
2022-12-06T04:10:39.337Z,100
2022-12-06T04:11:53.742Z,100
2022-12-06T04:13:08.091Z,100
2022-12-06T04:15:36.763Z,100
2022-12-06T04:16:50.121Z,100
2022-12-06T04:18:04.000Z,100
2022-12-06T04:19:18.730Z,100
2022-12-06T04:21:47.419Z,100
2022-12-06T04:23:01.725Z,100
2022-12-06T04:24:16.010Z,100
2022-12-06T04:25:30.290Z,100
2022-12-06T04:26:44.702Z,100
2022-12-06T04:27:59.018Z,100
2022-12-06T04:29:13.315Z,100
2022-12-06T04:30:27.710Z,100
2022-12-06T04:31:42.129Z,100
2022-12-06T04:32:56.451Z,100
2022-12-06T04:34:10.734Z,100
2022-12-06T04:36:39.408Z,100
2022-12-06T04:37:53.729Z,100
2022-12-06T04:39:08.009Z,100
2022-12-06T04:40:22.302Z,100
2022-12-06T04:41:36.703Z,100
2022-12-06T04:42:51.036Z,100
2022-12-06T04:44:05.313Z,100
2022-12-06T04:45:19.600Z,100
2022-12-06T04:46:33.998Z,100
2022-12-06T04:47:48.315Z,100
2022-12-06T04:49:02.608Z,100
2022-12-06T04:50:16.891Z,100
2022-12-06T04:52:45.610Z,100
2022-12-06T04:53:59.905Z,100
2022-12-06T04:56:28.592Z,100
2022-12-06T04:57:42.912Z,100
2022-12-06T04:58:57.185Z,100
2022-12-06T05:00:11.484Z,100
2022-12-06T05:01:25.881Z,100
2022-12-06T05:02:40.216Z,100
2022-12-06T05:03:54.481Z,100
2022-12-06T05:05:08.766Z,100
2022-12-06T05:06:23.169Z,100
2022-12-06T05:07:37.500Z,100
2022-12-06T05:08:51.789Z,100
2022-12-06T05:10:06.056Z,100
2022-12-06T05:11:20.475Z,100
2022-12-06T05:13:49.081Z,100
2022-12-06T05:15:03.365Z,100
2022-12-06T05:16:17.824Z,100
2022-12-06T05:17:32.152Z,100
2022-12-06T05:18:45.549Z,100
2022-12-06T05:19:59.894Z,100
2022-12-06T05:21:14.289Z,100
2022-12-06T05:22:28.624Z,100
2022-12-06T05:23:42.029Z,100
2022-12-06T05:24:56.369Z,100
2022-12-06T05:26:10.767Z,100
2022-12-06T05:27:25.112Z,100
2022-12-06T05:29:53.787Z,100
2022-12-06T05:31:08.121Z,100
2022-12-06T05:32:22.543Z,100
2022-12-06T05:33:36.863Z,100
2022-12-06T05:34:51.201Z,100
2022-12-06T05:36:05.542Z,100
2022-12-06T05:37:19.878Z,100
2022-12-06T05:38:34.301Z,100
2022-12-06T05:39:48.636Z,100
2022-12-06T05:41:02.014Z,100
2022-12-06T05:42:15.364Z,100
2022-12-06T05:43:29.696Z,100
2022-12-06T05:44:43.980Z,100
2022-12-06T05:47:12.562Z,100
2022-12-06T05:48:26.856Z,100
2022-12-06T05:49:41.099Z,100
2022-12-06T05:50:55.328Z,100
2022-12-06T05:52:09.645Z,100
2022-12-06T05:53:23.891Z,100
2022-12-06T05:54:38.120Z,100
2022-12-06T05:55:52.339Z,100
2022-12-06T05:57:06.569Z,100
2022-12-06T05:58:20.863Z,100
2022-12-06T05:59:35.103Z,100
2022-12-06T06:02:03.572Z,100
2022-12-06T06:03:17.794Z,100
2022-12-06T06:04:32.094Z,100
2022-12-06T06:05:46.336Z,100
2022-12-06T06:07:00.567Z,100
2022-12-06T06:08:14.788Z,100
2022-12-06T06:09:29.022Z,100
2022-12-06T06:10:43.311Z,100
2022-12-06T06:11:57.555Z,100
2022-12-06T06:13:11.851Z,100
2022-12-06T06:15:39.468Z,100
2022-12-06T06:16:53.755Z,100
2022-12-06T06:18:08.048Z,100
2022-12-06T06:19:22.326Z,100
2022-12-06T06:20:36.609Z,100
2022-12-06T06:21:50.901Z,100
2022-12-06T06:23:05.185Z,100
2022-12-06T06:25:33.765Z,100
2022-12-06T06:26:48.043Z,100
2022-12-06T06:28:02.342Z,100
2022-12-06T06:29:16.636Z,100
2022-12-06T06:30:30.976Z,100
2022-12-06T06:32:58.776Z,100
2022-12-06T06:34:13.115Z,100
2022-12-06T06:36:40.871Z,100
2022-12-06T06:37:55.220Z,100
2022-12-06T06:39:09.494Z,100
2022-12-06T06:40:22.852Z,100
2022-12-06T06:41:36.176Z,100
2022-12-06T06:42:50.470Z,100
2022-12-06T06:44:04.814Z,100
2022-12-06T06:45:19.148Z,100
2022-12-06T06:46:33.480Z,100
2022-12-06T06:47:47.831Z,100
2022-12-06T06:49:02.124Z,100
2022-12-06T06:50:16.407Z,100
2022-12-06T06:51:30.702Z,100
2022-12-06T06:52:45.004Z,100
2022-12-06T06:53:59.288Z,100
2022-12-06T06:55:13.584Z,100
2022-12-06T06:56:26.940Z,100
2022-12-06T06:57:40.273Z,100
2022-12-06T06:58:54.538Z,100
2022-12-06T07:00:08.837Z,100
2022-12-06T07:01:23.110Z,100
2022-12-06T07:02:37.395Z,100
2022-12-06T07:05:05.993Z,100
2022-12-06T07:06:20.263Z,100
2022-12-06T07:07:34.546Z,100
2022-12-06T07:10:03.126Z,100
2022-12-06T07:11:17.410Z,100
2022-12-06T07:12:30.774Z,100
2022-12-06T07:13:44.107Z,100
2022-12-06T07:14:58.384Z,100
2022-12-06T07:16:12.675Z,100
2022-12-06T07:17:26.954Z,100
2022-12-06T07:18:41.236Z,100
2022-12-06T07:19:55.540Z,100
2022-12-06T07:21:09.815Z,100
2022-12-06T07:22:24.110Z,100
2022-12-06T07:24:52.684Z,100
2022-12-06T07:27:21.255Z,100
2022-12-06T07:28:34.603Z,100
2022-12-06T07:29:47.943Z,100
2022-12-06T07:31:02.235Z,100
2022-12-06T07:32:16.518Z,100
2022-12-06T07:33:30.801Z,100
2022-12-06T07:34:45.076Z,100
2022-12-06T07:35:59.390Z,100
2022-12-06T07:37:13.664Z,100
2022-12-06T07:38:27.948Z,100
2022-12-06T07:39:42.224Z,100
2022-12-06T07:40:56.526Z,100
2022-12-06T07:42:10.813Z,100
2022-12-06T07:43:25.109Z,100
2022-12-06T07:44:38.448Z,100
2022-12-06T07:45:51.778Z,100
2022-12-06T07:47:06.066Z,100
2022-12-06T07:49:34.647Z,100
2022-12-06T07:50:48.918Z,100
2022-12-06T07:52:03.217Z,100
2022-12-06T07:53:17.514Z,100
2022-12-06T07:54:31.788Z,100
2022-12-06T07:55:46.077Z,100
2022-12-06T07:58:14.667Z,100
2022-12-06T07:59:28.949Z,100
2022-12-06T08:00:42.286Z,100
2022-12-06T08:01:55.627Z,100
2022-12-06T08:03:09.900Z,100
2022-12-06T08:04:24.188Z,100
2022-12-06T08:05:38.473Z,100
2022-12-06T08:06:52.771Z,100
2022-12-06T08:08:07.053Z,100
2022-12-06T08:09:21.338Z,100
2022-12-06T08:10:35.626Z,100
2022-12-06T08:11:49.912Z,100
2022-12-06T08:13:04.196Z,100
2022-12-06T08:14:18.505Z,100
2022-12-06T08:15:32.780Z,100
2022-12-06T08:16:46.128Z,100
2022-12-06T08:17:59.468Z,100
2022-12-06T08:19:13.748Z,100
2022-12-06T08:20:28.031Z,100
2022-12-06T08:21:42.324Z,100
2022-12-06T08:22:56.605Z,100
2022-12-06T08:24:10.908Z,100
2022-12-06T08:26:39.480Z,100
2022-12-06T08:27:53.761Z,100
2022-12-06T08:29:08.037Z,100
2022-12-06T08:31:36.620Z,100
2022-12-06T08:32:49.966Z,100
2022-12-06T08:34:03.298Z,100
2022-12-06T08:35:17.590Z,100
2022-12-06T08:36:31.880Z,100
2022-12-06T08:37:46.161Z,100
2022-12-06T08:39:00.437Z,100
2022-12-06T08:40:14.744Z,100
2022-12-06T08:41:29.018Z,100
2022-12-06T08:42:43.308Z,100
2022-12-06T08:43:57.601Z,100
2022-12-06T08:45:11.872Z,100
2022-12-06T08:46:26.173Z,100
2022-12-06T08:48:54.753Z,100
2022-12-06T08:50:08.071Z,100
2022-12-06T08:51:22.370Z,100
2022-12-06T08:52:36.668Z,100
2022-12-06T08:53:50.010Z,100
2022-12-06T08:55:03.358Z,100
2022-12-06T08:57:31.923Z,100
2022-12-06T08:58:46.209Z,100
2022-12-06T09:00:00.487Z,100
2022-12-06T09:01:14.784Z,100
2022-12-06T09:02:29.077Z,100
2022-12-06T09:03:43.358Z,100
2022-12-06T09:04:57.633Z,100
2022-12-06T09:06:11.920Z,100
2022-12-06T09:07:26.215Z,100
2022-12-06T09:08:40.494Z,100
2022-12-06T09:09:53.849Z,100
2022-12-06T09:11:07.199Z,100
2022-12-06T09:12:21.479Z,100
2022-12-06T09:13:35.748Z,100
2022-12-06T09:14:49.047Z,100
2022-12-06T09:16:03.362Z,100
2022-12-06T09:17:17.604Z,100
2022-12-06T09:18:31.815Z,100
2022-12-06T09:19:46.054Z,100
2022-12-06T09:21:00.268Z,100
2022-12-06T09:22:14.575Z,100
2022-12-06T09:23:28.815Z,100
2022-12-06T09:24:43.046Z,100
2022-12-06T09:25:57.264Z,100
2022-12-06T09:27:11.498Z,100
2022-12-06T09:28:25.802Z,100
2022-12-06T09:29:40.032Z,100
2022-12-06T09:30:54.276Z,100
2022-12-06T09:32:08.490Z,100
2022-12-06T09:33:22.724Z,100
2022-12-06T09:34:37.019Z,100
2022-12-06T09:35:51.269Z,100
2022-12-06T09:37:05.487Z,100
2022-12-06T09:38:19.710Z,100
2022-12-06T09:39:33.939Z,100
2022-12-06T09:40:48.240Z,100
2022-12-06T09:42:02.494Z,100
2022-12-06T09:43:16.702Z,100
2022-12-06T09:44:30.943Z,100
2022-12-06T09:45:45.227Z,100
2022-12-06T09:46:59.532Z,100
2022-12-06T09:48:13.802Z,100
2022-12-06T09:49:27.181Z,100
2022-12-06T09:50:40.496Z,100
2022-12-06T09:51:54.786Z,100
2022-12-06T09:53:09.063Z,100
2022-12-06T09:55:37.643Z,100
2022-12-06T09:58:06.233Z,100
2022-12-06T09:59:20.511Z,100
2022-12-06T10:00:34.794Z,100
2022-12-06T10:01:48.147Z,100
2022-12-06T10:03:02.423Z,100
2022-12-06T10:04:15.790Z,100
2022-12-06T10:05:30.064Z,100
2022-12-06T10:06:44.366Z,100
2022-12-06T10:09:12.941Z,100
2022-12-06T10:10:26.220Z,100
2022-12-06T10:11:40.520Z,100
2022-12-06T10:12:54.779Z,100
2022-12-06T10:14:08.990Z,100
2022-12-06T10:15:23.341Z,100
2022-12-06T10:16:37.584Z,100
2022-12-06T10:17:51.884Z,100
2022-12-06T10:19:06.124Z,100
2022-12-06T10:20:20.337Z,100
2022-12-06T10:22:48.790Z,100
2022-12-06T10:24:03.101Z,100
2022-12-06T10:25:17.339Z,100
2022-12-06T10:26:31.565Z,100
2022-12-06T10:27:45.787Z,100
2022-12-06T10:29:00.012Z,100
2022-12-06T10:30:14.326Z,100
2022-12-06T10:31:28.553Z,100
2022-12-06T10:32:42.783Z,100
2022-12-06T10:33:57.019Z,100
2022-12-06T10:35:11.237Z,100
2022-12-06T10:36:25.533Z,100
2022-12-06T10:37:39.786Z,100
2022-12-06T10:38:54.007Z,100
2022-12-06T10:40:08.241Z,100
2022-12-06T10:41:22.467Z,100
2022-12-06T10:42:36.760Z,100
2022-12-06T10:43:51.013Z,100
2022-12-06T10:45:05.240Z,100
2022-12-06T10:46:19.469Z,100
2022-12-06T10:47:33.693Z,100
2022-12-06T10:48:47.986Z,100
2022-12-06T10:50:02.232Z,100
2022-12-06T10:51:16.461Z,100
2022-12-06T10:52:30.674Z,100
2022-12-06T10:53:44.915Z,100
2022-12-06T10:54:59.209Z,100
2022-12-06T10:56:13.460Z,100
2022-12-06T10:57:27.677Z,100
2022-12-06T10:59:56.122Z,100
2022-12-06T11:01:10.499Z,100
2022-12-06T11:02:24.781Z,100
2022-12-06T11:03:38.116Z,100
2022-12-06T11:04:52.385Z,100
2022-12-06T11:06:06.692Z,100
2022-12-06T11:07:20.976Z,100
2022-12-06T11:08:35.261Z,100
2022-12-06T11:09:49.534Z,100
2022-12-06T11:11:02.894Z,100
2022-12-06T11:12:17.177Z,100
2022-12-06T11:13:30.508Z,100
2022-12-06T11:14:43.802Z,100
2022-12-06T11:15:58.057Z,100
2022-12-06T11:17:12.270Z,100
2022-12-06T11:18:26.508Z,100
2022-12-06T11:19:40.728Z,100
2022-12-06T11:20:55.025Z,100
2022-12-06T11:22:09.265Z,100
2022-12-06T11:23:23.500Z,100
2022-12-06T11:24:37.724Z,100
2022-12-06T11:25:51.952Z,100
2022-12-06T11:27:06.253Z,100
2022-12-06T11:28:20.483Z,100
2022-12-06T11:29:34.727Z,100
2022-12-06T11:30:48.941Z,100
2022-12-06T11:32:03.176Z,100
2022-12-06T11:33:17.464Z,100
2022-12-06T11:34:31.705Z,100
2022-12-06T11:35:45.933Z,100
2022-12-06T11:37:00.167Z,100
2022-12-06T11:38:14.392Z,100
2022-12-06T11:39:28.690Z,100
2022-12-06T11:40:42.945Z,100
2022-12-06T11:41:57.157Z,100
2022-12-06T11:43:11.386Z,100
2022-12-06T11:44:25.614Z,100
2022-12-06T11:45:39.972Z,100
2022-12-06T11:46:54.253Z,100
2022-12-06T11:48:07.554Z,100
2022-12-06T11:49:21.782Z,100
2022-12-06T11:50:36.087Z,100
2022-12-06T11:51:50.326Z,100
2022-12-06T11:53:04.544Z,100
2022-12-06T11:54:18.777Z,100
2022-12-06T11:56:47.295Z,100
2022-12-06T11:58:01.545Z,100
2022-12-06T11:59:15.782Z,100
2022-12-06T12:00:30.130Z,100
2022-12-06T12:01:44.347Z,100
2022-12-06T12:02:58.647Z,100
2022-12-06T12:04:12.886Z,100
2022-12-06T12:05:27.119Z,100
2022-12-06T12:06:41.354Z,100
2022-12-06T12:07:55.571Z,100
2022-12-06T12:09:09.878Z,100
2022-12-06T12:10:24.109Z,100
2022-12-06T12:11:38.347Z,100
2022-12-06T12:12:52.574Z,100
2022-12-06T12:14:06.800Z,100
2022-12-06T12:15:21.095Z,100
2022-12-06T12:17:49.558Z,100
2022-12-06T12:19:03.788Z,100
2022-12-06T12:20:18.015Z,100
2022-12-06T12:21:32.317Z,100
2022-12-06T12:22:46.562Z,100
2022-12-06T12:24:00.780Z,100
2022-12-06T12:25:15.001Z,100
2022-12-06T12:26:29.247Z,100
2022-12-06T12:27:43.539Z,100
2022-12-06T12:28:57.771Z,100
2022-12-06T12:30:11.999Z,100
2022-12-06T12:31:26.224Z,100
2022-12-06T12:32:40.460Z,100
2022-12-06T12:33:54.759Z,100
2022-12-06T12:35:08.992Z,100
2022-12-06T12:36:23.227Z,100
2022-12-06T12:37:37.455Z,100
2022-12-06T12:38:51.689Z,100
2022-12-06T12:40:05.990Z,100
2022-12-06T12:41:20.220Z,100
2022-12-06T12:42:34.442Z,100
2022-12-06T12:43:48.676Z,100
2022-12-06T12:45:02.907Z,100
2022-12-06T12:46:17.252Z,100
2022-12-06T12:47:31.552Z,100
2022-12-06T12:48:44.875Z,100
2022-12-06T12:49:58.173Z,100
2022-12-06T12:51:12.421Z,100
2022-12-06T12:52:26.632Z,100
2022-12-06T12:53:40.870Z,99.7
2022-12-06T12:54:55.096Z,99.5
2022-12-06T12:56:09.438Z,99.2
2022-12-06T12:57:23.672Z,99.5
2022-12-06T12:58:37.900Z,99.9
2022-12-06T12:59:52.137Z,99.8
2022-12-06T13:02:20.667Z,100
2022-12-06T13:03:34.902Z,100
2022-12-06T13:04:49.130Z,100
2022-12-06T13:06:03.357Z,100
2022-12-06T13:07:17.574Z,100
2022-12-06T13:08:31.874Z,100
2022-12-06T13:09:46.134Z,100
2022-12-06T13:11:00.354Z,100
2022-12-06T13:12:14.568Z,100
2022-12-06T13:13:28.802Z,100
2022-12-06T13:14:43.096Z,100
2022-12-06T13:15:57.339Z,100
2022-12-06T13:17:11.573Z,100
2022-12-06T13:18:25.788Z,100
2022-12-06T13:19:40.025Z,100
2022-12-06T13:20:54.384Z,100
2022-12-06T13:22:08.663Z,100
2022-12-06T13:23:21.961Z,100
2022-12-06T13:24:36.187Z,100
2022-12-06T13:25:50.498Z,100
2022-12-06T13:27:04.723Z,100
2022-12-06T13:28:18.951Z,100
2022-12-06T13:29:33.187Z,100
2022-12-06T13:30:47.410Z,100
2022-12-06T13:32:01.711Z,99.9
2022-12-06T13:33:15.963Z,98.4
2022-12-06T13:34:30.183Z,96.7
2022-12-06T13:35:44.418Z,94.6
2022-12-06T13:36:58.637Z,91.4
2022-12-06T13:38:12.931Z,89
2022-12-06T13:39:27.174Z,87.5
2022-12-06T13:40:41.396Z,86.7
2022-12-06T13:41:55.629Z,87
2022-12-06T13:43:09.849Z,86.5
2022-12-06T13:44:24.154Z,85
2022-12-06T13:45:38.401Z,84.7
2022-12-06T13:46:52.634Z,84.8
2022-12-06T13:48:06.857Z,84.2
2022-12-06T13:49:21.072Z,83.9
2022-12-06T13:50:35.374Z,84.5
2022-12-06T13:51:49.624Z,85.1
2022-12-06T13:53:03.838Z,86.4
2022-12-06T13:54:18.132Z,88.8
2022-12-06T13:55:31.475Z,90.2
2022-12-06T13:56:45.747Z,91.8
2022-12-06T13:57:59.040Z,93.9
2022-12-06T13:59:13.279Z,94.6
2022-12-06T14:00:27.576Z,95.6
2022-12-06T14:01:41.822Z,96.2
2022-12-06T14:02:56.049Z,96.7
2022-12-06T14:04:10.266Z,97.3
2022-12-06T14:05:24.494Z,97.7
2022-12-06T14:06:38.802Z,98
2022-12-06T14:07:53.035Z,98.2
2022-12-06T14:09:07.258Z,98.2
2022-12-06T14:10:21.498Z,98.6
2022-12-06T14:11:35.726Z,98.3
2022-12-06T14:12:50.025Z,98.5
2022-12-06T14:14:04.262Z,98.5
2022-12-06T14:15:18.486Z,97.9
2022-12-06T14:16:32.722Z,98.3
2022-12-06T14:17:46.939Z,98.7
2022-12-06T14:19:01.251Z,99
2022-12-06T14:20:15.492Z,99.1
2022-12-06T14:21:29.715Z,99.1
2022-12-06T14:22:43.931Z,99.3
2022-12-06T14:23:58.164Z,99.2
2022-12-06T14:25:12.454Z,99.1
2022-12-06T14:26:26.714Z,99.4
2022-12-06T14:27:40.939Z,99.3
2022-12-06T14:28:55.214Z,99.3
2022-12-06T14:30:08.557Z,99.4
2022-12-06T14:31:22.829Z,99.4
2022-12-06T14:32:36.125Z,99.5
2022-12-06T14:33:50.361Z,99.7
2022-12-06T14:35:04.651Z,99.7
2022-12-06T14:36:18.888Z,99.8
2022-12-06T14:37:33.128Z,99.7
2022-12-06T14:38:47.359Z,99.5
2022-12-06T14:40:01.581Z,99.6
2022-12-06T14:41:15.868Z,99.9
2022-12-06T14:42:30.112Z,100
2022-12-06T14:43:44.343Z,100
2022-12-06T14:44:58.582Z,100
2022-12-06T14:46:12.800Z,100
2022-12-06T14:47:27.102Z,100
2022-12-06T14:48:41.348Z,100
2022-12-06T14:49:55.575Z,100
2022-12-06T14:51:09.790Z,100
2022-12-06T14:52:24.014Z,100
2022-12-06T14:53:38.315Z,100
2022-12-06T14:54:52.560Z,100
2022-12-06T14:56:06.788Z,100
2022-12-06T14:57:21.014Z,100
2022-12-06T14:58:35.236Z,100
2022-12-06T14:59:49.553Z,100
2022-12-06T15:01:03.783Z,100
2022-12-06T15:02:18.009Z,100
2022-12-06T15:03:32.308Z,100
2022-12-06T15:04:46.573Z,100
2022-12-06T15:06:00.881Z,100
2022-12-06T15:07:15.158Z,100
2022-12-06T15:08:28.461Z,100
2022-12-06T15:09:42.679Z,100
2022-12-06T15:10:56.997Z,100
2022-12-06T15:12:11.220Z,100
2022-12-06T15:13:25.456Z,100
2022-12-06T15:14:39.681Z,100
2022-12-06T15:15:53.912Z,100
2022-12-06T15:17:08.217Z,100
2022-12-06T15:18:22.450Z,100
2022-12-06T15:19:36.000Z,100
2022-12-06T15:20:50.909Z,100
2022-12-06T15:22:05.136Z,100
2022-12-06T15:23:19.428Z,100
2022-12-06T15:24:33.663Z,100
2022-12-06T15:25:47.904Z,100
2022-12-06T15:27:02.000Z,100
2022-12-06T15:28:16.356Z,100
2022-12-06T15:29:30.657Z,100
2022-12-06T15:30:44.886Z,100
2022-12-06T15:31:59.113Z,100
2022-12-06T15:33:13.346Z,100
2022-12-06T15:34:27.586Z,100
2022-12-06T15:35:41.879Z,100
2022-12-06T15:36:56.111Z,100
2022-12-06T15:38:10.344Z,100
2022-12-06T15:39:24.638Z,100
2022-12-06T15:40:38.915Z,100
2022-12-06T15:41:53.216Z,100
2022-12-06T15:43:07.505Z,100
2022-12-06T15:44:20.788Z,100
2022-12-06T15:45:35.018Z,100
2022-12-06T15:46:49.000Z,100
2022-12-06T15:48:03.572Z,100
2022-12-06T15:49:17.784Z,100
2022-12-06T15:50:32.012Z,100
2022-12-06T15:51:46.305Z,100
2022-12-06T15:53:00.645Z,100
2022-12-06T15:54:14.883Z,100
2022-12-06T15:55:29.171Z,100
2022-12-06T15:56:43.493Z,100
2022-12-06T15:57:57.782Z,100
2022-12-06T15:59:12.139Z,100
2022-12-06T16:00:26.383Z,100
2022-12-06T16:01:40.612Z,100
2022-12-06T16:02:54.828Z,100
2022-12-06T16:04:09.054Z,100
2022-12-06T16:05:23.401Z,100
2022-12-06T16:06:37.652Z,100
2022-12-06T16:07:51.883Z,100
2022-12-06T16:10:20.583Z,100
2022-12-06T16:11:34.899Z,100
2022-12-06T16:14:03.461Z,100
2022-12-06T16:15:17.922Z,100
2022-12-06T16:16:32.265Z,100
2022-12-06T16:17:45.616Z,100
2022-12-06T16:18:59.902Z,100
2022-12-06T16:20:14.312Z,100
2022-12-06T16:21:28.625Z,100
2022-12-06T16:22:42.919Z,100
2022-12-06T16:23:57.200Z,100
2022-12-06T16:25:11.592Z,100
2022-12-06T16:26:25.919Z,100
2022-12-06T16:27:40.197Z,100
2022-12-06T16:28:54.477Z,100
2022-12-06T16:30:08.902Z,100
2022-12-06T16:31:23.217Z,100
2022-12-06T16:32:37.490Z,100
2022-12-06T16:33:51.787Z,100
2022-12-06T16:35:06.176Z,100
2022-12-06T16:36:20.504Z,100
2022-12-06T16:37:34.785Z,100
2022-12-06T16:38:49.069Z,100
2022-12-06T16:40:03.474Z,100
2022-12-06T16:41:17.806Z,100
2022-12-06T16:42:32.078Z,100
2022-12-06T16:43:46.373Z,100
2022-12-06T16:45:00.774Z,100
2022-12-06T16:46:15.095Z,100
2022-12-06T16:48:43.716Z,100
2022-12-06T16:49:58.115Z,100
2022-12-06T16:51:12.459Z,100
2022-12-06T16:52:25.802Z,100
2022-12-06T16:53:40.095Z,100
2022-12-06T16:54:54.491Z,100
2022-12-06T16:56:08.822Z,100
2022-12-06T16:57:23.098Z,100
2022-12-06T16:58:37.392Z,100
2022-12-06T16:59:51.000Z,100
2022-12-06T17:01:06.126Z,100
2022-12-06T17:02:20.403Z,100
2022-12-06T17:03:34.673Z,100
2022-12-06T17:04:49.088Z,100
2022-12-06T17:06:03.405Z,100
2022-12-06T17:07:17.682Z,100
2022-12-06T17:08:31.963Z,100
2022-12-06T17:09:46.380Z,100
2022-12-06T17:11:00.702Z,100
2022-12-06T17:12:14.985Z,100
2022-12-06T17:13:29.254Z,100
2022-12-06T17:14:43.680Z,100
2022-12-06T17:15:57.993Z,100
2022-12-06T17:17:12.274Z,100
2022-12-06T17:18:26.561Z,100
2022-12-06T17:19:40.967Z,100
2022-12-06T17:20:55.286Z,100
2022-12-06T17:22:09.575Z,100
2022-12-06T17:23:23.901Z,100
2022-12-06T17:24:38.322Z,100
2022-12-06T17:25:52.660Z,100
2022-12-06T17:27:06.001Z,100
2022-12-06T17:28:20.404Z,100
2022-12-06T17:29:34.824Z,100
2022-12-06T17:30:49.146Z,100
2022-12-06T17:32:03.418Z,100
2022-12-06T17:33:17.700Z,100
2022-12-06T17:34:32.117Z,100
2022-12-06T17:35:46.435Z,100
2022-12-06T17:37:00.716Z,100
2022-12-06T17:38:14.992Z,100
2022-12-06T17:39:29.393Z,100
2022-12-06T17:40:43.728Z,100
2022-12-06T17:41:58.012Z,100
2022-12-06T17:43:12.282Z,100
2022-12-06T17:44:26.687Z,100
2022-12-06T17:45:41.007Z,100
2022-12-06T17:46:55.304Z,100
2022-12-06T17:48:09.585Z,100
2022-12-06T17:49:23.981Z,100
2022-12-06T17:50:38.304Z,100
2022-12-06T17:51:52.599Z,100
2022-12-06T17:53:06.870Z,100
2022-12-06T17:54:21.282Z,100
2022-12-06T17:55:35.597Z,100
2022-12-06T17:56:49.874Z,100
2022-12-06T17:58:04.155Z,100
2022-12-06T17:59:18.576Z,100
2022-12-06T18:00:32.889Z,100
2022-12-06T18:01:47.173Z,100
2022-12-06T18:03:01.450Z,100
2022-12-06T18:04:15.861Z,100
2022-12-06T18:05:30.197Z,100
2022-12-06T18:06:44.464Z,100